createdAt,value
2017-11-11T00:01:13.014Z,4.60
2017-11-11T00:03:40.520Z,4.60
2017-11-11T00:06:08.066Z,4.60
2017-11-11T00:08:35.684Z,4.50
2017-11-11T00:11:03.229Z,4.60
2017-11-11T00:13:30.800Z,4.50
2017-11-11T00:15:58.464Z,4.60
2017-11-11T00:18:26.006Z,4.60
2017-11-11T00:20:54.299Z,4.60
2017-11-11T00:23:21.840Z,4.60
2017-11-11T00:25:50.159Z,4.50
2017-11-11T00:28:17.804Z,4.50
2017-11-11T00:30:45.317Z,4.50
2017-11-11T00:33:12.847Z,4.50
2017-11-11T00:35:40.385Z,4.60
2017-11-11T00:38:07.962Z,4.50
2017-11-11T00:40:35.489Z,4.60
2017-11-11T00:43:03.795Z,4.60
2017-11-11T00:45:31.361Z,4.60
2017-11-11T00:47:58.918Z,4.60
2017-11-11T00:50:26.431Z,4.60
2017-11-11T00:52:54.743Z,4.60
2017-11-11T00:55:22.305Z,4.50
2017-11-11T00:57:49.871Z,4.50
2017-11-11T01:00:17.393Z,4.50
2017-11-11T01:02:45.693Z,4.50
2017-11-11T01:05:13.228Z,4.50
2017-11-11T01:07:41.543Z,4.50
2017-11-11T01:10:09.073Z,4.50
2017-11-11T01:12:37.389Z,4.50
2017-11-11T01:15:04.912Z,4.40
2017-11-11T01:17:33.221Z,4.30
2017-11-11T01:20:00.779Z,4.30
2017-11-11T01:22:28.464Z,4.30
2017-11-11T01:24:56.002Z,4.30
2017-11-11T01:27:23.523Z,4.30
2017-11-11T01:29:51.839Z,4.30
2017-11-11T01:32:19.408Z,4.30
2017-11-11T01:34:46.961Z,4.30
2017-11-11T01:37:14.476Z,4.30
2017-11-11T01:39:42.029Z,4.20
2017-11-11T01:42:09.657Z,4.20
2017-11-11T01:44:37.195Z,4.20
2017-11-11T01:47:04.741Z,4.20
2017-11-11T01:49:32.323Z,4.30
2017-11-11T01:51:59.891Z,4.30
2017-11-11T01:54:27.436Z,4.20
2017-11-11T01:56:55.721Z,4.30
2017-11-11T01:59:23.296Z,4.30
2017-11-11T02:01:50.849Z,4.40
2017-11-11T02:04:18.385Z,4.50
2017-11-11T02:06:46.661Z,4.60
2017-11-11T02:09:15.070Z,4.70
2017-11-11T02:11:42.634Z,4.70
2017-11-11T02:14:10.185Z,4.70
2017-11-11T02:16:37.757Z,4.70
2017-11-11T02:19:05.283Z,4.60
2017-11-11T02:21:33.580Z,4.50
2017-11-11T02:24:01.137Z,4.50
2017-11-11T02:26:28.651Z,4.40
2017-11-11T02:28:56.262Z,4.30
2017-11-11T02:31:23.770Z,4.40
2017-11-11T02:33:51.309Z,4.40
2017-11-11T02:36:18.853Z,4.30
2017-11-11T02:38:46.513Z,4.30
2017-11-11T02:41:14.032Z,4.30
2017-11-11T02:43:41.564Z,4.30
2017-11-11T02:46:09.087Z,4.30
2017-11-11T02:48:36.659Z,4.30
2017-11-11T02:51:04.196Z,4.30
2017-11-11T02:53:31.802Z,4.20
2017-11-11T02:55:59.312Z,4.20
2017-11-11T02:58:27.716Z,4.20
2017-11-11T03:00:55.302Z,4.20
2017-11-11T03:03:22.835Z,4.20
2017-11-11T03:05:50.347Z,4.20
2017-11-11T03:08:17.848Z,4.20
2017-11-11T03:10:45.371Z,4.30
2017-11-11T03:13:12.887Z,4.30
2017-11-11T03:15:40.416Z,4.40
2017-11-11T03:18:08.688Z,4.30
2017-11-11T03:20:37.085Z,4.30
2017-11-11T03:23:04.660Z,4.30
2017-11-11T03:25:32.193Z,4.30
2017-11-11T03:27:59.715Z,4.30
2017-11-11T03:30:28.020Z,4.40
2017-11-11T03:32:56.310Z,4.50
2017-11-11T03:35:24.708Z,4.60
2017-11-11T03:37:52.276Z,4.60
2017-11-11T03:40:19.844Z,4.50
2017-11-11T03:42:47.385Z,4.40
2017-11-11T03:45:14.916Z,4.40
2017-11-11T03:47:43.231Z,4.50
2017-11-11T03:50:10.756Z,4.50
2017-11-11T03:52:39.170Z,4.60
2017-11-11T03:55:06.716Z,4.50
2017-11-11T03:57:34.233Z,4.60
2017-11-11T04:00:01.781Z,4.60
2017-11-11T04:02:29.294Z,4.60
2017-11-11T04:04:56.885Z,4.60
2017-11-11T04:07:24.404Z,4.60
2017-11-11T04:09:52.706Z,4.50
2017-11-11T04:12:20.213Z,4.50
2017-11-11T04:14:47.744Z,4.60
2017-11-11T04:17:15.264Z,4.50
2017-11-11T04:19:43.558Z,4.40
2017-11-11T04:22:11.119Z,4.40
2017-11-11T04:24:38.670Z,4.40
2017-11-11T04:27:06.209Z,4.40
2017-11-11T04:29:33.762Z,4.30
2017-11-11T04:32:01.281Z,4.30
2017-11-11T04:34:28.840Z,4.30
2017-11-11T04:36:56.373Z,4.30
2017-11-11T04:39:24.660Z,4.30
2017-11-11T04:41:52.216Z,4.30
2017-11-11T04:44:19.746Z,4.30
2017-11-11T04:46:48.047Z,4.30
2017-11-11T04:49:16.319Z,4.40
2017-11-11T04:51:44.625Z,4.50
2017-11-11T04:54:12.146Z,4.50
2017-11-11T04:56:40.470Z,4.40
2017-11-11T04:59:07.996Z,4.40
2017-11-11T05:01:36.298Z,4.50
2017-11-11T05:04:03.824Z,4.50
2017-11-11T05:06:32.140Z,4.60
2017-11-11T05:08:59.650Z,4.60
2017-11-11T05:11:27.368Z,4.60
2017-11-11T05:13:55.329Z,4.60
2017-11-11T05:16:22.864Z,4.70
2017-11-11T05:18:51.140Z,4.60
2017-11-11T05:21:19.443Z,4.60
2017-11-11T05:23:46.969Z,4.60
2017-11-11T05:26:15.372Z,4.60
2017-11-11T05:28:42.950Z,4.50
2017-11-11T05:31:10.559Z,4.50
2017-11-11T05:33:38.129Z,4.50
2017-11-11T05:36:05.727Z,4.60
2017-11-11T05:38:33.287Z,4.60
2017-11-11T05:41:00.861Z,4.50
2017-11-11T05:43:28.398Z,4.50
2017-11-11T05:45:55.968Z,4.50
2017-11-11T05:48:23.503Z,4.40
2017-11-11T05:50:51.817Z,4.30
2017-11-11T05:53:19.374Z,4.30
2017-11-11T05:55:46.931Z,4.20
2017-11-11T05:58:14.452Z,4.30
2017-11-11T06:00:41.967Z,4.30
2017-11-11T06:03:09.491Z,4.40
2017-11-11T06:05:37.814Z,4.50
2017-11-11T06:08:05.448Z,4.40
2017-11-11T06:10:32.964Z,4.50
2017-11-11T06:13:00.568Z,4.50
2017-11-11T06:15:28.123Z,4.50
2017-11-11T06:17:55.665Z,4.60
2017-11-11T06:20:23.957Z,4.70
2017-11-11T06:22:51.507Z,4.70
2017-11-11T06:25:19.816Z,4.70
2017-11-11T06:27:47.336Z,4.70
2017-11-11T06:30:15.642Z,4.80
2017-11-11T06:32:43.209Z,4.80
2017-11-11T06:35:10.772Z,4.80
2017-11-11T06:37:38.333Z,4.80
2017-11-11T06:40:05.889Z,4.80
2017-11-11T06:42:33.401Z,4.80
2017-11-11T06:45:01.691Z,4.90
2017-11-11T06:47:30.017Z,4.90
2017-11-11T06:49:57.540Z,4.90
2017-11-11T06:52:25.823Z,5.00
2017-11-11T06:54:54.220Z,5.00
2017-11-11T06:57:21.748Z,5.00
2017-11-11T06:59:50.054Z,5.00
2017-11-11T07:02:17.563Z,5.00
2017-11-11T07:04:45.194Z,5.00
2017-11-11T07:07:12.703Z,5.00
2017-11-11T07:09:40.240Z,5.00
2017-11-11T07:12:07.772Z,5.00
2017-11-11T07:14:35.304Z,5.00
2017-11-11T07:17:03.611Z,4.90
2017-11-11T07:19:31.185Z,4.90
2017-11-11T07:21:58.711Z,4.80
2017-11-11T07:24:27.112Z,4.80
2017-11-11T07:26:54.652Z,4.70
2017-11-11T07:29:22.235Z,4.80
2017-11-11T07:31:49.758Z,4.80
2017-11-11T07:34:18.057Z,4.90
2017-11-11T07:36:45.616Z,4.90
2017-11-11T07:39:13.189Z,5.00
2017-11-11T07:41:40.747Z,5.00
2017-11-11T07:44:08.257Z,5.00
2017-11-11T07:46:35.881Z,5.10
2017-11-11T07:49:03.392Z,5.10
2017-11-11T07:51:31.713Z,5.10
2017-11-11T07:53:59.250Z,5.10
2017-11-11T07:56:27.657Z,5.20
2017-11-11T07:58:55.169Z,5.20
2017-11-11T08:01:22.693Z,5.20
2017-11-11T08:03:50.217Z,5.30
2017-11-11T08:06:17.780Z,5.50
2017-11-11T08:08:45.306Z,5.70
2017-11-11T08:11:13.011Z,5.80
2017-11-11T08:13:40.601Z,5.90
2017-11-11T08:16:08.329Z,6.00
2017-11-11T08:18:35.840Z,6.20
2017-11-11T08:21:03.364Z,6.20
2017-11-11T08:23:30.881Z,6.50
2017-11-11T08:25:58.532Z,6.60
2017-11-11T08:28:26.047Z,6.60
2017-11-11T08:30:53.595Z,6.50
2017-11-11T08:33:21.115Z,6.50
2017-11-11T08:35:48.655Z,6.40
2017-11-11T08:38:16.164Z,6.50
2017-11-11T08:40:43.739Z,6.50
2017-11-11T08:43:11.265Z,6.50
2017-11-11T08:45:39.564Z,6.30
2017-11-11T08:48:07.106Z,6.30
2017-11-11T08:50:35.388Z,6.00
2017-11-11T08:53:03.681Z,6.10
2017-11-11T08:55:31.193Z,6.10
2017-11-11T08:57:58.738Z,6.30
2017-11-11T09:00:26.268Z,6.80
2017-11-11T09:02:53.800Z,7.30
2017-11-11T09:05:22.071Z,9.10
2017-11-11T09:07:49.668Z,9.10
2017-11-11T09:10:17.171Z,9.50
2017-11-11T09:12:44.780Z,9.50
2017-11-11T09:15:13.136Z,9.30
2017-11-11T09:17:40.655Z,8.50
2017-11-11T09:20:08.160Z,8.20
2017-11-11T09:22:36.460Z,8.00
2017-11-11T09:25:03.975Z,8.00
2017-11-11T09:27:31.499Z,8.00
2017-11-11T09:29:59.050Z,7.90
2017-11-11T09:32:26.606Z,7.60
2017-11-11T09:34:54.116Z,7.40
2017-11-11T09:37:21.623Z,7.50
2017-11-11T09:39:49.180Z,7.40
2017-11-11T09:42:16.752Z,7.30
2017-11-11T09:44:44.333Z,7.40
2017-11-11T09:47:11.844Z,7.50
2017-11-11T09:49:40.169Z,7.50
2017-11-11T09:52:07.703Z,7.50
2017-11-11T09:54:35.248Z,7.60
2017-11-11T09:57:03.523Z,7.50
2017-11-11T09:59:31.809Z,7.40
2017-11-11T10:01:59.406Z,7.30
2017-11-11T10:04:26.934Z,7.20
2017-11-11T10:06:54.502Z,7.00
2017-11-11T10:09:22.036Z,6.70
2017-11-11T10:11:50.322Z,6.70
2017-11-11T10:14:18.633Z,6.80
2017-11-11T10:16:46.156Z,6.80
2017-11-11T10:19:14.596Z,6.80
2017-11-11T10:21:42.162Z,6.70
2017-11-11T10:24:09.686Z,6.80
2017-11-11T10:26:37.246Z,6.70
2017-11-11T10:29:04.768Z,6.90
2017-11-11T10:31:32.287Z,6.90
2017-11-11T10:33:59.823Z,6.90
2017-11-11T10:36:27.352Z,6.80
2017-11-11T10:38:55.755Z,6.70
2017-11-11T10:41:23.264Z,6.70
2017-11-11T10:43:50.879Z,6.70
2017-11-11T10:46:18.405Z,6.50
2017-11-11T10:48:46.020Z,6.50
2017-11-11T10:51:13.560Z,6.40
2017-11-11T10:53:41.103Z,6.30
2017-11-11T10:56:09.443Z,6.20
2017-11-11T10:58:36.994Z,6.20
2017-11-11T11:01:04.642Z,6.10
2017-11-11T11:03:32.202Z,6.00
2017-11-11T11:05:59.874Z,5.90
2017-11-11T11:08:27.388Z,6.00
2017-11-11T11:10:55.680Z,6.40
2017-11-11T11:13:23.203Z,6.40
2017-11-11T11:15:50.754Z,6.50
2017-11-11T11:18:18.379Z,6.60
2017-11-11T11:20:45.911Z,6.60
2017-11-11T11:23:14.187Z,6.60
2017-11-11T11:25:42.476Z,6.60
2017-11-11T11:28:10.777Z,6.60
2017-11-11T11:30:38.313Z,6.60
2017-11-11T11:33:06.597Z,6.80
2017-11-11T11:35:34.173Z,6.80
2017-11-11T11:38:01.707Z,7.00
2017-11-11T11:40:30.006Z,7.60
2017-11-11T11:42:57.518Z,7.60
2017-11-11T11:45:25.054Z,7.80
2017-11-11T11:47:52.595Z,7.80
2017-11-11T11:50:20.149Z,7.60
2017-11-11T11:52:47.703Z,7.40
2017-11-11T11:55:15.261Z,7.30
2017-11-11T11:57:42.771Z,7.10
2017-11-11T12:00:10.380Z,6.90
2017-11-11T12:02:37.904Z,6.80
2017-11-11T12:05:05.412Z,6.60
2017-11-11T12:07:32.934Z,6.50
2017-11-11T12:10:00.523Z,6.40
2017-11-11T12:12:28.053Z,6.40
2017-11-11T12:14:55.586Z,6.30
2017-11-11T12:17:23.123Z,6.30
2017-11-11T12:19:50.652Z,6.30
2017-11-11T12:22:18.224Z,6.30
2017-11-11T12:24:45.817Z,6.20
2017-11-11T12:27:13.442Z,6.00
2017-11-11T12:29:40.945Z,5.70
2017-11-11T12:32:08.577Z,5.50
2017-11-11T12:34:36.092Z,5.30
2017-11-11T12:37:03.628Z,5.30
2017-11-11T12:39:31.177Z,5.30
2017-11-11T12:41:58.852Z,5.30
2017-11-11T12:44:26.392Z,5.20
2017-11-11T12:46:53.948Z,5.20
2017-11-11T12:49:21.451Z,5.10
2017-11-11T12:51:48.979Z,5.10
2017-11-11T12:54:16.500Z,5.10
2017-11-11T12:56:44.788Z,5.10
2017-11-11T12:59:12.306Z,5.10
2017-11-11T13:01:39.837Z,4.90
2017-11-11T13:04:07.368Z,5.10
2017-11-11T13:06:35.736Z,5.00
2017-11-11T13:09:04.148Z,5.00
2017-11-11T13:11:31.731Z,5.00
2017-11-11T13:13:59.366Z,5.10
2017-11-11T13:16:26.886Z,5.20
2017-11-11T13:18:55.204Z,5.20
2017-11-11T13:21:22.712Z,5.10
2017-11-11T13:23:50.311Z,5.10
2017-11-11T13:26:17.889Z,5.20
2017-11-11T13:28:45.414Z,5.20
2017-11-11T13:31:13.684Z,5.30
2017-11-11T13:33:41.235Z,5.30
2017-11-11T13:36:08.746Z,5.30
2017-11-11T13:38:36.300Z,5.30
2017-11-11T13:41:03.811Z,5.30
2017-11-11T13:43:32.120Z,5.40
2017-11-11T13:46:00.394Z,5.40
2017-11-11T13:48:28.694Z,5.40
2017-11-11T13:50:56.199Z,5.30
2017-11-11T13:53:23.725Z,5.40
2017-11-11T13:55:51.250Z,5.30
2017-11-11T13:58:19.551Z,5.30
2017-11-11T14:00:47.069Z,5.20
2017-11-11T14:03:14.664Z,5.30
2017-11-11T14:05:42.199Z,5.30
2017-11-11T14:08:10.504Z,5.10
2017-11-11T14:10:38.035Z,5.20
2017-11-11T14:13:06.315Z,5.20
2017-11-11T14:15:34.618Z,5.20
2017-11-11T14:18:02.175Z,5.20
2017-11-11T14:20:29.697Z,5.30
2017-11-11T14:22:57.209Z,5.30
2017-11-11T14:25:24.727Z,5.30
2017-11-11T14:27:52.316Z,5.40
2017-11-11T14:30:19.892Z,5.50
2017-11-11T14:32:47.399Z,5.40
2017-11-11T14:35:14.932Z,5.40
2017-11-11T14:37:42.444Z,5.40
2017-11-11T14:40:10.840Z,5.30
2017-11-11T14:42:38.364Z,5.20
2017-11-11T14:45:05.894Z,5.20
2017-11-11T14:47:33.399Z,5.10
2017-11-11T14:50:01.688Z,5.10
2017-11-11T14:52:29.213Z,5.00
2017-11-11T14:54:56.816Z,5.10
2017-11-11T14:57:24.382Z,5.00
2017-11-11T14:59:51.915Z,5.00
2017-11-11T15:02:20.230Z,5.00
2017-11-11T15:04:47.768Z,5.00
2017-11-11T15:07:16.039Z,4.90
2017-11-11T15:09:44.453Z,4.90
2017-11-11T15:12:11.964Z,4.90
2017-11-11T15:14:39.562Z,4.90
2017-11-11T15:17:07.071Z,4.90
2017-11-11T15:19:34.599Z,4.90
2017-11-11T15:22:02.108Z,4.80
2017-11-11T15:24:29.664Z,4.80
2017-11-11T15:26:57.181Z,4.80
2017-11-11T15:29:24.704Z,4.80
2017-11-11T15:31:52.975Z,4.80
2017-11-11T15:34:21.272Z,4.80
2017-11-11T15:36:48.832Z,4.80
2017-11-11T15:39:16.361Z,4.80
2017-11-11T15:41:43.873Z,4.80
2017-11-11T15:44:11.404Z,4.80
2017-11-11T15:46:38.938Z,4.70
2017-11-11T15:49:07.220Z,4.70
2017-11-11T15:51:35.518Z,4.60
2017-11-11T15:54:03.812Z,4.40
2017-11-11T15:56:31.331Z,4.40
2017-11-11T15:58:59.599Z,4.30
2017-11-11T16:01:27.127Z,4.30
2017-11-11T16:03:54.640Z,4.30
2017-11-11T16:06:22.926Z,4.20
2017-11-11T16:08:51.203Z,4.20
2017-11-11T16:11:19.508Z,4.20
2017-11-11T16:13:47.024Z,4.20
2017-11-11T16:16:14.545Z,4.20
2017-11-11T16:18:42.082Z,4.20
2017-11-11T16:21:09.612Z,4.20
2017-11-11T16:23:37.888Z,4.20
2017-11-11T16:26:06.185Z,4.20
2017-11-11T16:28:33.704Z,4.10
2017-11-11T16:31:01.231Z,4.10
2017-11-11T16:33:28.746Z,4.10
2017-11-11T16:35:57.085Z,4.10
2017-11-11T16:38:24.621Z,4.10
2017-11-11T16:40:52.118Z,4.10
2017-11-11T16:43:19.741Z,4.20
2017-11-11T16:45:47.257Z,4.20
2017-11-11T16:48:14.876Z,4.20
2017-11-11T16:50:42.388Z,4.20
2017-11-11T16:53:10.670Z,4.20
2017-11-11T16:55:38.943Z,4.30
2017-11-11T16:58:07.237Z,4.30
2017-11-11T17:00:34.806Z,4.30
2017-11-11T17:03:02.376Z,4.40
2017-11-11T17:05:29.932Z,4.30
2017-11-11T17:07:57.504Z,4.30
2017-11-11T17:10:25.020Z,4.20
2017-11-11T17:12:53.373Z,4.20
2017-11-11T17:15:21.002Z,4.20
2017-11-11T17:17:48.558Z,4.30
2017-11-11T17:20:16.075Z,4.30
2017-11-11T17:22:43.672Z,4.30
2017-11-11T17:25:11.200Z,4.40
2017-11-11T17:27:38.774Z,4.40
2017-11-11T17:30:07.062Z,4.40
2017-11-11T17:32:34.599Z,4.40
2017-11-11T17:35:02.883Z,4.30
2017-11-11T17:37:31.181Z,4.30
2017-11-11T17:39:58.760Z,4.30
2017-11-11T17:42:26.303Z,4.30
2017-11-11T17:44:53.815Z,4.30
2017-11-11T17:47:21.372Z,4.20
2017-11-11T17:49:48.890Z,4.20
2017-11-11T17:52:16.509Z,4.20
2017-11-11T17:54:44.111Z,4.30
2017-11-11T17:57:11.639Z,4.30
2017-11-11T17:59:39.175Z,4.30
2017-11-11T18:02:06.793Z,4.40
2017-11-11T18:04:34.355Z,4.40
2017-11-11T18:07:01.870Z,4.40
2017-11-11T18:09:29.393Z,4.50
2017-11-11T18:11:56.940Z,4.60
2017-11-11T18:14:24.476Z,4.60
2017-11-11T18:16:52.751Z,4.70
2017-11-11T18:19:21.152Z,4.60
2017-11-11T18:21:48.660Z,4.60
2017-11-11T18:24:16.184Z,4.60
2017-11-11T18:26:43.715Z,4.60
2017-11-11T18:29:12.005Z,4.50
2017-11-11T18:31:40.407Z,4.50
2017-11-11T18:34:07.945Z,4.50
2017-11-11T18:36:35.508Z,4.50
2017-11-11T18:39:03.057Z,4.50
2017-11-11T18:41:30.661Z,4.40
2017-11-11T18:43:58.219Z,4.40
2017-11-11T18:46:25.761Z,4.40
2017-11-11T18:48:53.321Z,4.30
2017-11-11T18:51:20.837Z,4.30
2017-11-11T18:53:48.450Z,4.30
2017-11-11T18:56:15.975Z,4.20
2017-11-11T18:58:44.257Z,4.20
2017-11-11T19:01:12.544Z,4.20
2017-11-11T19:03:40.074Z,4.20
2017-11-11T19:06:07.624Z,4.20
2017-11-11T19:08:35.155Z,4.20
2017-11-11T19:11:02.709Z,4.10
2017-11-11T19:13:30.261Z,4.10
2017-11-11T19:15:57.799Z,4.10
2017-11-11T19:18:26.101Z,4.00
2017-11-11T19:20:53.635Z,4.00
2017-11-11T19:23:22.049Z,4.00
2017-11-11T19:25:49.635Z,4.00
2017-11-11T19:28:17.270Z,4.00
2017-11-11T19:30:44.804Z,3.90
2017-11-11T19:33:12.493Z,3.90
2017-11-11T19:35:40.048Z,3.90
2017-11-11T19:38:07.605Z,3.90
2017-11-11T19:40:35.157Z,3.90
2017-11-11T19:43:02.760Z,3.90
2017-11-11T19:45:30.316Z,3.90
2017-11-11T19:47:57.845Z,3.90
2017-11-11T19:50:25.424Z,3.90
2017-11-11T19:52:52.941Z,3.90
2017-11-11T19:55:21.287Z,3.90
2017-11-11T19:57:48.810Z,3.90
2017-11-11T20:00:16.351Z,3.90
2017-11-11T20:02:44.627Z,3.90
2017-11-11T20:05:12.921Z,3.90
2017-11-11T20:07:40.425Z,3.90
2017-11-11T20:10:08.055Z,3.90
2017-11-11T20:12:35.573Z,3.90
2017-11-11T20:15:03.876Z,3.90
2017-11-11T20:17:31.401Z,3.90
2017-11-11T20:19:59.029Z,3.90
2017-11-11T20:22:26.541Z,3.90
2017-11-11T20:24:54.945Z,3.90
2017-11-11T20:27:22.512Z,3.90
2017-11-11T20:29:50.093Z,3.90
2017-11-11T20:32:17.750Z,3.90
2017-11-11T20:34:45.266Z,3.90
2017-11-11T20:37:13.593Z,3.90
2017-11-11T20:39:41.103Z,3.90
2017-11-11T20:42:09.391Z,3.90
2017-11-11T20:44:37.811Z,3.80
2017-11-11T20:47:05.349Z,3.80
2017-11-11T20:49:32.889Z,3.80
2017-11-11T20:52:01.174Z,3.80
2017-11-11T20:54:28.683Z,3.80
2017-11-11T20:56:56.224Z,3.70
2017-11-11T20:59:23.736Z,3.70
2017-11-11T21:01:52.146Z,3.70
2017-11-11T21:04:19.705Z,3.70
2017-11-11T21:06:47.229Z,3.70
2017-11-11T21:09:15.532Z,3.70
2017-11-11T21:11:43.079Z,3.70
2017-11-11T21:14:11.391Z,3.60
2017-11-11T21:16:38.973Z,3.60
2017-11-11T21:19:06.491Z,3.60
2017-11-11T21:21:34.059Z,3.60
2017-11-11T21:24:01.596Z,3.60
2017-11-11T21:26:29.900Z,3.50
2017-11-11T21:28:57.408Z,3.50
2017-11-11T21:31:24.942Z,3.50
2017-11-11T21:33:53.029Z,3.50
2017-11-11T21:36:20.709Z,3.50
2017-11-11T21:38:49.022Z,3.50
2017-11-11T21:41:17.407Z,3.40
2017-11-11T21:43:44.936Z,3.40
2017-11-11T21:46:12.488Z,3.40
2017-11-11T21:48:40.112Z,3.40
2017-11-11T21:51:07.760Z,3.40
2017-11-11T21:53:36.163Z,3.40
2017-11-11T21:56:03.852Z,3.40
2017-11-11T21:58:31.411Z,3.40
2017-11-11T22:00:59.038Z,3.40
2017-11-11T22:03:26.564Z,3.40
2017-11-11T22:05:54.860Z,3.40
2017-11-11T22:08:22.422Z,3.30
2017-11-11T22:10:49.988Z,3.40
2017-11-11T22:13:17.522Z,3.40
2017-11-11T22:15:45.804Z,3.40
2017-11-11T22:18:13.357Z,3.30
2017-11-11T22:20:41.665Z,3.30
2017-11-11T22:23:09.209Z,3.30
2017-11-11T22:25:36.807Z,3.30
2017-11-11T22:28:04.357Z,3.40
2017-11-11T22:30:31.904Z,3.40
2017-11-11T22:32:59.437Z,3.30
2017-11-11T22:35:27.749Z,3.30
2017-11-11T22:37:55.321Z,3.30
2017-11-11T22:40:22.838Z,3.30
2017-11-11T22:42:51.141Z,3.40
2017-11-11T22:45:18.668Z,3.40
2017-11-11T22:47:46.264Z,3.30
2017-11-11T22:50:13.840Z,3.30
2017-11-11T22:52:41.493Z,3.30
2017-11-11T22:55:09.021Z,3.30
2017-11-11T22:57:37.336Z,3.40
2017-11-11T23:00:04.877Z,3.30
2017-11-11T23:02:33.196Z,3.30
2017-11-11T23:05:00.728Z,3.30
2017-11-11T23:07:28.281Z,3.30
2017-11-11T23:09:55.861Z,3.30
2017-11-11T23:12:23.416Z,3.40
2017-11-11T23:14:50.948Z,3.30
2017-11-11T23:17:19.360Z,3.30
2017-11-11T23:19:46.904Z,3.30
2017-11-11T23:22:14.439Z,3.30
2017-11-11T23:24:42.848Z,3.20
2017-11-11T23:27:10.424Z,3.20
2017-11-11T23:29:37.963Z,3.20
2017-11-11T23:32:05.540Z,3.20
2017-11-11T23:34:33.096Z,3.20
2017-11-11T23:37:00.629Z,3.20
2017-11-11T23:39:29.040Z,3.20
2017-11-11T23:41:56.586Z,3.10
2017-11-11T23:44:24.176Z,3.10
2017-11-11T23:46:51.692Z,3.10
2017-11-11T23:49:19.245Z,3.10
2017-11-11T23:51:47.548Z,3.10
2017-11-11T23:54:15.115Z,3.10
2017-11-11T23:56:42.623Z,3.10
2017-11-11T23:59:10.151Z,3.00
